Time;durP1;ratioP1;P1;durP2;ratioP2;P2;SDS_P1;SDS_P2;PMS_P1;PMS_P2;Temp;Humidity;BMP_temperature;BMP_pressure;BME280_temperature;BME280_humidity;BME280_pressure;Samples;Min_cycle;Max_cycle;Signal;HPM_P1;HPM_P2
2024/04/12 00:00:21;;;;;;;5.20;4.80;;;10.90;99.90;;;;;;6807292;26;20520;-60
2024/04/12 00:03:31;;;;;;;7.50;5.07;;;10.80;99.90;;;;;;6808463;26;20456;-60
2024/04/12 00:06:49;;;;;;;6.63;6.03;;;10.80;99.90;;;;;;6781297;26;20608;-60
2024/04/12 00:09:54;;;;;;;7.03;6.33;;;10.80;99.90;;;;;;6798758;26;20452;-59
2024/04/12 00:13:04;;;;;;;6.10;5.60;;;10.70;99.90;;;;;;6809795;26;21231;-59
2024/04/12 00:16:17;;;;;;;7.63;6.73;;;10.70;99.90;;;;;;6799348;26;20535;-60
2024/04/12 00:19:23;;;;;;;6.40;5.77;;;10.70;99.90;;;;;;6810893;26;20532;-60
2024/04/12 00:22:45;;;;;;;7.13;6.13;;;10.60;99.90;;;;;;6810591;26;20448;-59
2024/04/12 00:25:55;;;;;;;6.93;6.30;;;10.60;99.90;;;;;;6806543;26;20480;-60
2024/04/12 00:29:22;;;;;;;6.67;6.03;;;10.60;99.90;;;;;;6801781;26;20558;-60
2024/04/12 00:32:27;;;;;;;8.00;6.03;;;10.60;99.90;;;;;;6815051;26;20524;-60
2024/04/12 00:35:35;;;;;;;7.10;6.40;;;10.60;99.90;;;;;;6805814;26;20618;-61
2024/04/12 00:38:55;;;;;;;6.00;5.30;;;10.50;99.90;;;;;;6808169;26;20485;-60
2024/04/12 00:42:03;;;;;;;6.70;6.00;;;10.50;99.90;;;;;;6799224;26;20516;-60
2024/04/12 00:45:39;;;;;;;6.00;5.50;;;10.50;99.90;;;;;;6810673;26;20476;-60
2024/04/12 00:48:54;;;;;;;5.70;5.20;;;10.50;99.90;;;;;;6797915;26;20511;-60
2024/04/12 00:52:02;;;;;;;6.10;5.17;;;10.40;99.90;;;;;;6792560;26;20973;-60
2024/04/12 00:55:25;;;;;;;9.10;6.23;;;10.40;99.90;;;;;;6795151;26;21016;-60
2024/04/12 00:58:47;;;;;;;6.53;5.97;;;10.30;99.90;;;;;;6801134;26;20520;-61
2024/04/12 01:01:55;;;;;;;10.37;5.70;;;10.30;99.90;;;;;;6804006;26;20480;-60
2024/04/12 01:05:00;;;;;;;6.00;5.50;;;10.20;99.90;;;;;;6798945;26;20540;-60
2024/04/12 01:08:07;;;;;;;6.40;5.80;;;10.20;99.90;;;;;;6800566;26;20487;-60
2024/04/12 01:11:31;;;;;;;7.50;5.90;;;10.20;99.90;;;;;;6789490;26;20483;-60
2024/04/12 01:14:37;;;;;;;5.43;5.03;;;10.20;99.90;;;;;;6793146;26;20457;-61
2024/04/12 01:17:56;;;;;;;7.00;6.30;;;10.20;99.90;;;;;;6802532;26;20547;-59
2024/04/12 01:21:10;;;;;;;5.63;5.23;;;10.10;99.90;;;;;;6793260;26;20464;-60
2024/04/12 01:24:21;;;;;;;5.83;5.33;;;10.10;99.90;;;;;;6789784;26;20841;-59
2024/04/12 01:27:34;;;;;;;6.30;5.70;;;10.10;99.90;;;;;;6798286;26;20618;-60
2024/04/12 01:30:49;;;;;;;7.57;6.90;;;10.00;99.90;;;;;;6765608;26;20473;-60
2024/04/12 01:34:00;;;;;;;5.77;5.27;;;10.00;99.90;;;;;;6788332;26;20520;-60
2024/04/12 01:37:15;;;;;;;5.63;5.23;;;10.00;99.90;;;;;;6768559;26;21004;-59
2024/04/12 01:40:22;;;;;;;5.43;4.93;;;10.00;99.90;;;;;;6744788;26;20523;-60
2024/04/12 01:43:40;;;;;;;6.57;5.77;;;10.00;99.90;;;;;;6733299;26;20467;-59
2024/04/12 01:46:44;;;;;;;7.53;6.33;;;9.90;99.90;;;;;;6729802;26;20562;-60
2024/04/12 01:50:02;;;;;;;7.47;6.77;;;9.90;99.90;;;;;;6728887;26;20582;-60
2024/04/12 01:53:15;;;;;;;9.63;7.00;;;9.90;99.90;;;;;;6720402;26;20479;-60
2024/04/12 01:56:22;;;;;;;8.20;7.23;;;9.90;99.90;;;;;;6681680;26;20525;-60
2024/04/12 01:59:46;;;;;;;9.20;8.30;;;9.80;99.90;;;;;;6756976;26;20469;-60
2024/04/12 02:02:59;;;;;;;10.00;8.10;;;9.80;99.90;;;;;;6763905;26;20587;-60
2024/04/12 02:06:07;;;;;;;7.77;6.87;;;9.80;99.90;;;;;;6768023;26;20863;-60
2024/04/12 02:09:19;;;;;;;7.77;7.00;;;9.80;99.90;;;;;;6768668;26;20473;-60
2024/04/12 02:12:33;;;;;;;8.27;7.47;;;9.80;99.90;;;;;;6767239;26;20473;-60
2024/04/12 02:15:58;;;;;;;7.00;6.27;;;9.80;99.90;;;;;;6763338;26;20462;-61
2024/04/12 02:19:21;;;;;;;7.40;6.70;;;9.80;99.90;;;;;;6761738;26;20787;-61
2024/04/12 02:22:30;;;;;;;8.20;7.33;;;9.70;99.90;;;;;;6767488;26;20931;-60
2024/04/12 02:25:36;;;;;;;8.70;6.87;;;9.70;99.90;;;;;;6764286;26;20891;-60
2024/04/12 02:28:43;;;;;;;7.17;6.47;;;9.70;99.90;;;;;;6766459;26;20457;-60
2024/04/12 02:32:08;;;;;;;7.00;6.40;;;9.70;99.90;;;;;;6766504;26;20587;-61
2024/04/12 02:35:13;;;;;;;7.40;6.60;;;9.70;99.90;;;;;;6767200;26;20457;-60
2024/04/12 02:38:22;;;;;;;8.70;6.30;;;9.60;99.90;;;;;;6803483;26;20523;-60
2024/04/12 02:41:37;;;;;;;6.70;6.00;;;9.60;99.90;;;;;;6813389;26;20510;-60
2024/04/12 02:44:51;;;;;;;7.20;6.60;;;9.60;99.90;;;;;;6812720;26;20480;-60
2024/04/12 02:48:12;;;;;;;6.90;6.20;;;9.60;99.90;;;;;;6812847;26;20599;-59
2024/04/12 02:51:24;;;;;;;8.37;7.10;;;9.60;99.90;;;;;;6812218;26;20623;-60
2024/04/12 02:54:29;;;;;;;7.47;6.77;;;9.60;99.90;;;;;;6810997;26;20590;-60
2024/04/12 02:57:43;;;;;;;6.90;6.20;;;9.60;99.90;;;;;;6812057;26;20913;-59
2024/04/12 03:00:48;;;;;;;8.70;7.67;;;9.60;99.90;;;;;;6811433;26;21145;-60
2024/04/12 03:04:14;;;;;;;9.33;7.27;;;9.60;99.90;;;;;;6812137;26;20753;-59
2024/04/12 03:07:20;;;;;;;7.63;6.80;;;9.60;99.90;;;;;;6811764;26;20530;-60
2024/04/12 03:10:33;;;;;;;7.07;6.43;;;9.60;99.90;;;;;;6812173;26;20949;-59
2024/04/12 03:13:37;;;;;;;7.57;6.60;;;9.60;99.90;;;;;;6809998;26;20555;-59
2024/04/12 03:16:53;;;;;;;8.67;7.23;;;9.50;99.90;;;;;;6811631;26;20969;-60
2024/04/12 03:20:15;;;;;;;8.00;7.00;;;9.50;99.90;;;;;;6811759;26;20472;-60
2024/04/12 03:23:25;;;;;;;7.67;6.97;;;9.50;99.90;;;;;;6811190;26;20461;-60
2024/04/12 03:26:32;;;;;;;9.00;7.53;;;9.50;99.90;;;;;;6812078;26;20468;-60
2024/04/12 03:29:43;;;;;;;8.33;6.90;;;9.40;99.90;;;;;;6810575;26;20650;-60
2024/04/12 03:33:02;;;;;;;6.63;6.03;;;9.40;99.90;;;;;;6810737;26;20799;-60
2024/04/12 03:36:26;;;;;;;7.00;6.27;;;9.40;99.90;;;;;;6778794;26;20476;-60
2024/04/12 03:39:45;;;;;;;8.77;7.60;;;9.40;99.90;;;;;;6811129;26;20553;-60
2024/04/12 03:43:02;;;;;;;8.57;7.77;;;9.40;99.90;;;;;;6808826;26;20483;-60
2024/04/12 03:46:07;;;;;;;9.03;7.83;;;9.40;99.90;;;;;;6810488;26;20501;-60
2024/04/12 03:49:28;;;;;;;8.40;7.60;;;9.30;99.90;;;;;;6810763;26;20468;-60
2024/04/12 03:52:51;;;;;;;8.10;7.30;;;9.30;99.90;;;;;;6811218;26;20472;-59
2024/04/12 03:55:55;;;;;;;9.03;8.20;;;9.30;99.90;;;;;;6800463;26;20476;-60
2024/04/12 03:59:23;;;;;;;8.57;7.63;;;9.20;99.90;;;;;;6810994;26;20456;-59
2024/04/12 04:02:29;;;;;;;9.83;8.90;;;9.30;99.90;;;;;;6810388;26;20452;-60
2024/04/12 04:05:37;;;;;;;7.73;7.00;;;9.30;99.90;;;;;;6811272;26;20847;-60
2024/04/12 04:08:48;;;;;;;8.37;7.57;;;9.30;99.90;;;;;;6815063;26;20578;-61
2024/04/12 04:11:55;;;;;;;11.33;8.03;;;9.30;99.90;;;;;;6813252;26;21216;-59
2024/04/12 04:15:04;;;;;;;9.93;8.63;;;9.30;99.90;;;;;;6815957;26;20460;-60
2024/04/12 04:18:17;;;;;;;10.23;7.67;;;9.30;99.90;;;;;;6816113;26;20640;-60
2024/04/12 04:21:24;;;;;;;11.33;7.90;;;9.30;99.90;;;;;;6815450;26;20483;-61
2024/04/12 04:24:47;;;;;;;9.50;7.40;;;9.40;99.90;;;;;;6814549;26;20464;-61
2024/04/12 04:27:54;;;;;;;9.00;8.07;;;9.40;99.90;;;;;;6813881;26;20468;-61
2024/04/12 04:31:05;;;;;;;9.27;8.37;;;9.50;99.90;;;;;;6814335;26;20585;-61
2024/04/12 04:34:25;;;;;;;8.77;7.97;;;9.70;99.90;;;;;;6783510;26;20701;-61
2024/04/12 04:37:29;;;;;;;9.33;7.23;;;9.90;99.90;;;;;;6813844;26;20476;-60
2024/04/12 04:40:44;;;;;;;8.70;7.80;;;10.10;99.90;;;;;;6814455;26;20609;-59
2024/04/12 04:43:52;;;;;;;8.53;7.00;;;10.50;99.90;;;;;;6814239;26;20704;-60
2024/04/12 04:47:10;;;;;;;12.30;6.87;;;10.90;99.90;;;;;;6814802;26;20476;-60
2024/04/12 04:50:19;;;;;;;10.53;6.73;;;11.50;99.90;;;;;;6814943;26;20459;-59
2024/04/12 04:53:24;;;;;;;10.90;7.83;;;11.90;99.90;;;;;;6814410;26;21014;-60
2024/04/12 04:57:00;;;;;;;6.60;6.10;;;12.50;99.90;;;;;;6813277;26;20457;-61
2024/04/12 05:00:18;;;;;;;6.40;5.80;;;13.20;99.90;;;;;;6814456;26;20552;-60
2024/04/12 05:03:27;;;;;;;8.30;5.90;;;14.00;99.90;;;;;;6814638;26;20531;-60
2024/04/12 05:06:32;;;;;;;6.00;5.40;;;14.70;99.90;;;;;;6813792;26;20583;-61
2024/04/12 05:09:53;;;;;;;6.33;5.00;;;15.40;97.50;;;;;;6813669;26;21195;-59
2024/04/12 05:13:03;;;;;;;6.03;5.40;;;16.20;95.10;;;;;;6812464;26;21461;-60
2024/04/12 05:16:15;;;;;;;8.00;5.90;;;17.00;93.00;;;;;;6813642;26;20467;-61
2024/04/12 05:19:25;;;;;;;6.40;5.50;;;17.80;90.80;;;;;;6812936;26;20471;-61
2024/04/12 05:22:32;;;;;;;9.73;5.77;;;18.60;87.00;;;;;;6813896;26;20837;-60
2024/04/12 05:25:44;;;;;;;7.83;5.70;;;19.40;81.80;;;;;;6808458;26;20243;-61
2024/04/12 05:29:07;;;;;;;6.10;5.50;;;20.20;77.40;;;;;;6812701;26;20693;-61
2024/04/12 05:32:10;;;;;;;6.80;6.10;;;21.10;72.50;;;;;;6813263;26;20223;-60
2024/04/12 05:35:26;;;;;;;6.83;6.20;;;22.00;68.60;;;;;;6813517;26;20657;-60
2024/04/12 05:38:34;;;;;;;7.83;6.47;;;22.80;64.50;;;;;;6812605;26;20285;-62
2024/04/12 05:41:44;;;;;;;8.80;5.47;;;23.70;59.90;;;;;;6810859;26;20327;-61
2024/04/12 05:45:09;;;;;;;7.07;5.73;;;24.50;56.90;;;;;;6781572;26;20250;-61
2024/04/12 05:48:15;;;;;;;7.97;5.43;;;25.40;53.80;;;;;;6813200;26;20285;-61
2024/04/12 05:51:25;;;;;;;6.80;5.37;;;26.00;51.30;;;;;;6814660;26;20226;-61
2024/04/12 05:54:39;;;;;;;6.80;5.73;;;26.90;48.90;;;;;;6813372;26;20246;-60
2024/04/12 05:57:43;;;;;;;6.20;5.60;;;27.50;46.80;;;;;;6813517;26;20395;-61
2024/04/12 06:01:07;;;;;;;6.53;6.03;;;28.20;45.10;;;;;;6813677;26;20219;-61
2024/04/12 06:04:23;;;;;;;7.73;6.37;;;29.10;43.60;;;;;;6813629;26;20246;-61
2024/04/12 06:07:35;;;;;;;7.13;6.43;;;30.00;41.10;;;;;;6813247;26;20234;-60
2024/04/12 06:10:46;;;;;;;10.80;6.30;;;30.70;39.10;;;;;;6809999;26;20406;-62
2024/04/12 06:13:54;;;;;;;9.38;8.40;;;31.40;37.50;;;;;;6811072;26;20234;-61
2024/04/12 06:17:08;;;;;;;16.55;9.23;;;32.20;35.80;;;;;;6813080;26;20323;-61
2024/04/12 06:20:24;;;;;;;8.13;7.35;;;32.90;34.30;;;;;;6812047;26;20273;-62
2024/04/12 06:23:54;;;;;;;8.32;7.53;;;33.50;33.00;;;;;;6812667;26;20218;-61
2024/04/12 06:27:03;;;;;;;10.77;9.27;;;34.30;32.10;;;;;;6812443;26;20227;-61
2024/04/12 06:30:13;;;;;;;11.52;8.70;;;35.00;30.20;;;;;;6812475;26;20518;-62
2024/04/12 06:33:34;;;;;;;15.27;13.85;;;35.60;29.30;;;;;;6812430;26;20226;-61
2024/04/12 06:36:45;;;;;;;10.48;7.07;;;36.20;28.20;;;;;;6812379;26;20313;-62
2024/04/12 06:40:05;;;;;;;8.73;7.80;;;36.80;27.40;;;;;;6813625;26;20234;-62
2024/04/12 06:43:21;;;;;;;8.10;7.20;;;37.50;26.60;;;;;;6812989;26;20284;-61
2024/04/12 06:46:27;;;;;;;9.38;6.15;;;38.10;25.90;;;;;;6813133;26;20238;-62
2024/04/12 06:49:52;;;;;;;7.47;6.18;;;38.60;25.30;;;;;;6812753;26;20766;-61
2024/04/12 06:52:57;;;;;;;9.55;6.43;;;39.10;24.70;;;;;;6812233;26;20712;-61
2024/04/12 06:56:20;;;;;;;12.32;6.38;;;39.80;23.90;;;;;;6811436;26;20271;-61
2024/04/12 06:59:35;;;;;;;7.93;6.25;;;40.50;23.60;;;;;;6812203;26;20242;-61
2024/04/12 07:02:46;;;;;;;10.52;5.88;;;41.10;22.60;;;;;;6809229;26;20289;-61
2024/04/12 07:06:07;;;;;;;6.47;5.40;;;41.80;22.00;;;;;;6811969;26;20278;-61
2024/04/12 07:09:15;;;;;;;7.72;4.78;;;42.30;21.40;;;;;;6811384;26;20679;-61
2024/04/12 07:12:19;;;;;;;4.90;4.25;;;42.70;20.90;;;;;;6811037;26;20871;-62
2024/04/12 07:15:33;;;;;;;5.78;5.13;;;43.30;20.60;;;;;;6811891;26;20326;-61
2024/04/12 07:18:42;;;;;;;6.25;5.28;;;43.80;20.00;;;;;;6812115;26;20238;-62
2024/04/12 07:21:54;;;;;;;5.00;4.70;;;44.10;19.80;;;;;;6803875;26;20238;-63
2024/04/12 07:25:06;;;;;;;5.90;5.32;;;43.70;19.70;;;;;;6811884;26;20243;-60
2024/04/12 07:28:13;;;;;;;5.32;4.53;;;43.90;19.50;;;;;;6809244;26;20462;-63
2024/04/12 07:31:24;;;;;;;5.95;5.45;;;42.30;20.50;;;;;;6781691;26;20268;-62
2024/04/12 07:34:31;;;;;;;4.97;4.57;;;42.00;20.40;;;;;;6812925;26;20242;-62
2024/04/12 07:37:47;;;;;;;6.63;5.18;;;42.20;20.60;;;;;;6807296;26;20258;-61
2024/04/12 07:40:54;;;;;;;7.03;4.97;;;43.10;20.20;;;;;;6796846;26;20696;-61
2024/04/12 07:44:06;;;;;;;4.72;4.32;;;43.80;19.60;;;;;;6803790;26;20291;-59
2024/04/12 07:47:21;;;;;;;8.85;5.15;;;38.20;23.20;;;;;;6807960;26;20289;-59
2024/04/12 07:50:28;;;;;;;6.38;5.78;;;39.10;23.60;;;;;;6768446;26;20231;-59
2024/04/12 07:54:03;;;;;;;5.95;5.32;;;39.20;22.80;;;;;;6784096;26;20281;-59
2024/04/12 07:57:13;;;;;;;6.05;5.25;;;40.30;22.20;;;;;;6780175;26;20230;-59
2024/04/12 08:00:35;;;;;;;5.93;5.32;;;38.20;23.20;;;;;;6812608;26;20302;-58
2024/04/12 08:03:42;;;;;;;14.65;7.47;;;38.00;24.50;;;;;;6810308;26;20234;-59
2024/04/12 08:06:55;;;;;;;6.82;5.63;;;38.80;23.10;;;;;;6796601;26;20250;-59
2024/04/12 08:10:29;;;;;;;5.63;5.13;;;38.40;23.40;;;;;;6811794;26;20278;-57
2024/04/12 08:13:43;;;;;;;6.00;5.40;;;37.80;24.40;;;;;;6810435;26;20539;-58
2024/04/12 08:17:01;;;;;;;6.97;5.38;;;38.10;23.30;;;;;;6808217;26;20260;-57
2024/04/12 08:20:13;;;;;;;6.22;5.68;;;36.40;25.20;;;;;;6808770;26;20673;-58
2024/04/12 08:23:21;;;;;;;9.23;5.30;;;38.60;23.80;;;;;;6798073;26;20238;-57
2024/04/12 08:26:33;;;;;;;5.22;4.72;;;40.30;22.20;;;;;;6809800;26;20536;-57
2024/04/12 08:29:48;;;;;;;4.93;4.53;;;40.40;21.90;;;;;;6802714;26;20649;-58
2024/04/12 08:32:55;;;;;;;5.53;4.70;;;43.10;20.30;;;;;;6809617;26;20345;-57
2024/04/12 08:39:30;;;;;;;6.00;4.53;;;42.50;20.60;;;;;;6769002;26;20259;-58
2024/04/12 08:42:54;;;;;;;5.57;4.45;;;43.70;19.10;;;;;;6770590;26;20223;-57
2024/04/12 08:46:03;;;;;;;5.90;4.60;;;42.20;20.00;;;;;;6768623;26;20524;-59
2024/04/12 08:49:17;;;;;;;5.47;5.07;;;43.60;19.60;;;;;;6765818;26;20244;-63
2024/04/12 08:52:28;;;;;;;5.57;5.07;;;43.10;19.20;;;;;;6764861;26;20325;-64
2024/04/12 08:55:42;;;;;;;5.40;4.90;;;41.90;19.70;;;;;;6767345;26;20243;-63
2024/04/12 08:59:05;;;;;;;4.18;3.88;;;42.30;19.50;;;;;;6768080;26;20251;-65
2024/04/12 09:02:17;;;;;;;7.50;4.28;;;42.80;19.70;;;;;;6777958;26;20281;-65
2024/04/12 09:05:22;;;;;;;4.65;4.25;;;43.60;19.10;;;;;;6815093;26;20276;-64
2024/04/12 09:08:40;;;;;;;6.35;4.80;;;42.80;18.60;;;;;;6813167;26;20497;-65
2024/04/12 09:11:47;;;;;;;7.57;4.40;;;42.80;19.10;;;;;;6767165;26;20274;-65
2024/04/12 09:15:03;;;;;;;6.22;4.35;;;44.10;18.00;;;;;;6769771;26;20248;-64
2024/04/12 09:18:26;;;;;;;4.80;4.50;;;44.40;17.40;;;;;;6770140;26;20771;-64
2024/04/12 09:21:47;;;;;;;6.50;4.68;;;42.70;18.60;;;;;;6769825;26;20681;-63
2024/04/12 09:24:58;;;;;;;5.85;4.60;;;43.90;17.80;;;;;;6768958;26;20684;-65
2024/04/12 09:28:07;;;;;;;5.57;5.05;;;44.70;17.50;;;;;;6770085;26;20268;-65
2024/04/12 09:34:46;;;;;;;5.68;4.65;;;46.40;16.90;;;;;;6732078;26;20238;-65
2024/04/12 09:38:05;;;;;;;4.78;4.38;;;46.20;16.10;;;;;;6795154;26;20242;-65
2024/04/12 09:41:28;;;;;;;10.75;6.05;;;47.80;15.60;;;;;;6813330;26;20242;-64
2024/04/12 09:44:48;;;;;;;8.50;4.95;;;49.10;14.80;;;;;;6809032;26;20244;-64
2024/04/12 10:39:44;;;;;;;4.00;3.70;;;47.90;14.00;;;;;;6814908;26;20220;-67
2024/04/12 10:42:56;;;;;;;6.20;3.55;;;46.40;15.20;;;;;;6783684;26;20294;-64
2024/04/12 10:46:10;;;;;;;7.15;4.50;;;48.40;14.40;;;;;;6815572;26;20651;-65
2024/04/12 10:49:30;;;;;;;7.97;4.72;;;46.70;14.40;;;;;;6780619;26;20247;-65
2024/04/12 10:52:38;;;;;;;5.03;3.65;;;44.90;15.50;;;;;;6781851;26;20524;-65
2024/04/12 10:55:52;;;;;;;4.95;4.20;;;44.80;16.20;;;;;;6812839;26;20275;-66
2024/04/12 10:59:05;;;;;;;4.78;4.32;;;46.20;15.60;;;;;;6812942;26;20229;-66
2024/04/12 11:02:10;;;;;;;4.55;4.15;;;47.50;15.00;;;;;;6812997;26;20273;-63
2024/04/12 11:08:53;;;;;;;4.90;4.28;;;46.50;15.00;;;;;;6736092;26;20246;-66
2024/04/12 11:12:10;;;;;;;6.13;4.20;;;45.60;15.40;;;;;;6811906;26;20236;-62
2024/04/12 11:32:21;;;;;;;5.68;3.80;;;46.00;16.20;;;;;;6768857;26;20246;-65
2024/04/12 11:35:34;;;;;;;5.47;3.97;;;45.70;16.10;;;;;;6782464;26;20349;-66
2024/04/12 11:38:47;;;;;;;4.00;3.70;;;44.90;16.30;;;;;;6801631;26;20335;-66
2024/04/12 11:41:55;;;;;;;6.93;3.80;;;44.80;16.50;;;;;;6772340;26;20231;-64
2024/04/12 11:45:08;;;;;;;4.80;4.40;;;43.40;17.20;;;;;;6807239;26;20241;-61
2024/04/12 11:48:16;;;;;;;4.68;4.28;;;41.40;18.30;;;;;;6812057;26;20238;-66
2024/04/12 11:51:33;;;;;;;4.10;3.80;;;39.30;20.60;;;;;;6811803;26;20242;-63
2024/04/12 11:54:37;;;;;;;5.10;4.65;;;39.00;20.30;;;;;;6811277;26;20247;-64
2024/04/12 11:57:45;;;;;;;4.53;4.00;;;39.70;20.30;;;;;;6811483;26;20703;-68
2024/04/12 12:00:52;;;;;;;4.00;3.70;;;39.80;19.80;;;;;;6811504;26;20301;-64
2024/04/12 12:03:59;;;;;;;6.68;4.35;;;39.40;20.30;;;;;;6811544;26;20229;-63
2024/04/12 12:07:04;;;;;;;5.68;4.65;;;39.30;20.50;;;;;;6811801;26;20843;-65
2024/04/12 12:10:17;;;;;;;5.55;4.95;;;38.50;20.60;;;;;;6771192;26;20225;-63
2024/04/12 12:13:22;;;;;;;4.20;3.80;;;38.30;21.10;;;;;;6798957;26;20243;-68
2024/04/12 12:16:33;;;;;;;5.95;4.70;;;38.20;21.20;;;;;;6812257;26;20306;-64
2024/04/12 12:19:41;;;;;;;5.75;4.32;;;37.40;21.60;;;;;;6812548;26;20330;-66
2024/04/12 12:22:58;;;;;;;4.45;4.05;;;36.20;22.60;;;;;;6804809;26;20347;-67
2024/04/12 12:26:02;;;;;;;3.95;3.65;;;35.90;23.60;;;;;;6808394;26;20253;-66
2024/04/12 12:29:08;;;;;;;6.07;4.38;;;35.30;23.80;;;;;;6778870;26;20277;-66
2024/04/12 12:32:34;;;;;;;4.80;4.40;;;34.40;24.20;;;;;;6800376;26;20242;-66
2024/04/12 12:35:42;;;;;;;4.88;4.35;;;33.40;25.30;;;;;;6784540;26;20314;-65
2024/04/12 12:38:50;;;;;;;4.63;4.22;;;32.10;26.90;;;;;;6812777;26;20250;-65
2024/04/12 12:41:53;;;;;;;5.13;4.63;;;31.40;27.50;;;;;;6792564;26;20250;-64
2024/04/12 12:45:11;;;;;;;5.05;4.65;;;31.30;27.80;;;;;;6782283;26;20336;-64
2024/04/12 12:48:19;;;;;;;5.05;4.55;;;31.30;27.90;;;;;;6771482;26;20284;-66
2024/04/12 12:51:29;;;;;;;4.95;4.50;;;31.00;28.70;;;;;;6790231;26;20267;-60
2024/04/12 12:54:36;;;;;;;5.57;4.75;;;30.90;28.60;;;;;;6800707;26;20243;-61
2024/04/12 12:57:45;;;;;;;5.22;4.60;;;30.90;28.90;;;;;;6813964;26;20245;-60
2024/04/12 13:00:47;;;;;;;7.40;5.40;;;30.00;29.60;;;;;;6805106;26;20652;-62
2024/04/12 13:04:04;;;;;;;5.30;4.80;;;29.40;30.70;;;;;;6802341;26;20238;-60
2024/04/12 13:07:22;;;;;;;5.72;4.97;;;28.90;31.40;;;;;;6778704;26;20231;-60
2024/04/12 13:10:33;;;;;;;6.13;5.37;;;28.90;31.80;;;;;;6797094;26;20240;-60
2024/04/12 13:13:46;;;;;;;6.07;5.47;;;28.70;32.60;;;;;;6788155;26;20243;-61
2024/04/12 13:16:49;;;;;;;7.40;4.93;;;28.10;33.10;;;;;;6812559;26;20254;-61
2024/04/12 13:20:19;;;;;;;5.90;5.50;;;28.20;33.20;;;;;;6785103;26;20239;-62
2024/04/12 13:23:26;;;;;;;6.70;5.30;;;28.20;33.50;;;;;;6792678;26;20294;-61
2024/04/12 13:26:34;;;;;;;5.67;5.13;;;27.90;34.40;;;;;;6803038;26;21089;-61
2024/04/12 13:29:38;;;;;;;6.70;4.77;;;28.00;33.90;;;;;;6782207;26;20350;-60
2024/04/12 13:32:48;;;;;;;6.37;5.77;;;28.00;34.00;;;;;;6804028;26;20714;-59
2024/04/12 13:36:13;;;;;;;7.37;5.90;;;27.30;35.00;;;;;;6807415;26;20246;-61
2024/04/12 13:42:42;;;;;;;7.80;5.20;;;26.50;36.40;;;;;;6754192;26;20225;-62
2024/04/12 13:52:54;;;;;;;7.07;5.83;;;25.60;39.00;;;;;;6726556;26;20358;-60
2024/04/12 13:59:34;;;;;;;7.43;5.20;;;24.90;40.30;;;;;;6755707;26;20241;-60
2024/04/12 14:02:46;;;;;;;9.13;5.90;;;24.70;40.90;;;;;;6762448;26;20702;-61
2024/04/12 14:05:56;;;;;;;8.50;6.50;;;24.90;40.90;;;;;;6755654;26;20349;-59
2024/04/12 14:09:13;;;;;;;6.77;5.50;;;25.00;40.30;;;;;;6766167;26;20883;-61
2024/04/12 14:12:22;;;;;;;7.70;5.17;;;25.10;40.70;;;;;;6761971;26;20286;-62
2024/04/12 14:15:26;;;;;;;5.93;5.53;;;25.30;40.50;;;;;;6768573;26;20794;-61
2024/04/12 14:18:34;;;;;;;5.40;4.90;;;25.30;40.20;;;;;;6719548;26;20232;-61
2024/04/12 14:21:41;;;;;;;5.83;5.20;;;25.20;40.50;;;;;;6755763;26;20296;-61
2024/04/12 14:25:02;;;;;;;5.60;4.97;;;24.90;40.70;;;;;;6748755;26;20623;-61
2024/04/12 14:28:19;;;;;;;5.73;5.10;;;24.80;41.40;;;;;;6741404;26;20241;-61
2024/04/12 14:31:30;;;;;;;5.93;5.40;;;24.30;41.80;;;;;;6753199;26;20614;-61
2024/04/12 14:34:39;;;;;;;6.47;5.03;;;24.40;41.80;;;;;;6766935;26;20269;-61
2024/04/12 14:37:46;;;;;;;7.23;5.77;;;24.40;42.50;;;;;;6787348;26;20340;-61
2024/04/12 14:41:09;;;;;;;6.43;5.40;;;24.40;42.50;;;;;;6810514;26;20235;-62
2024/04/12 14:44:18;;;;;;;5.50;5.00;;;24.20;42.80;;;;;;6812661;26;20653;-62
2024/04/12 14:47:27;;;;;;;6.03;5.43;;;23.70;43.40;;;;;;6808230;26;20227;-61
2024/04/12 14:50:34;;;;;;;5.23;4.80;;;23.60;44.20;;;;;;6812166;26;20235;-61
2024/04/12 14:53:42;;;;;;;6.53;5.93;;;23.80;43.80;;;;;;6803028;26;20272;-62
2024/04/12 14:57:12;;;;;;;9.23;5.80;;;23.70;44.10;;;;;;6802431;26;20561;-61
2024/04/12 15:00:19;;;;;;;8.23;5.70;;;23.60;44.10;;;;;;6780875;26;20618;-62
2024/04/12 15:48:16;;;;;;;5.47;5.07;;;23.80;45.00;;;;;;6775420;26;20273;-61
2024/04/12 15:51:26;;;;;;;8.23;5.37;;;23.50;45.00;;;;;;6787950;26;20243;-61
2024/04/12 15:54:35;;;;;;;7.23;5.03;;;23.10;46.20;;;;;;6797745;26;20311;-62
2024/04/12 16:11:25;;;;;;;6.10;5.50;;;23.00;46.90;;;;;;6736454;26;20267;-62
2024/04/12 16:14:39;;;;;;;6.43;5.87;;;22.90;46.70;;;;;;6796824;26;20752;-62
2024/04/12 16:17:48;;;;;;;6.53;6.03;;;22.80;47.00;;;;;;6797029;26;20293;-62
2024/04/12 16:21:11;;;;;;;7.63;6.27;;;22.70;47.20;;;;;;6801425;26;20247;-57
2024/04/12 16:24:15;;;;;;;7.47;5.77;;;22.70;47.20;;;;;;6808097;26;20314;-57
2024/04/12 16:27:31;;;;;;;6.43;5.77;;;22.60;47.80;;;;;;6809357;26;20231;-58
2024/04/12 16:30:35;;;;;;;6.40;5.23;;;22.40;48.10;;;;;;6779807;26;20236;-58
2024/04/12 16:33:45;;;;;;;5.83;5.23;;;22.30;48.30;;;;;;6802764;26;20289;-58
2024/04/12 16:36:57;;;;;;;6.50;5.80;;;22.40;48.40;;;;;;6778286;26;20538;-57
2024/04/12 16:40:05;;;;;;;8.20;6.30;;;22.40;48.40;;;;;;6791276;26;20298;-58
2024/04/12 16:43:12;;;;;;;8.00;5.60;;;22.30;48.50;;;;;;6809920;26;20281;-58
2024/04/12 16:46:20;;;;;;;7.97;6.70;;;22.20;49.00;;;;;;6806236;26;20361;-58
2024/04/12 16:49:27;;;;;;;6.67;6.00;;;22.10;49.00;;;;;;6807913;26;20235;-57
2024/04/12 16:52:45;;;;;;;6.73;5.07;;;22.00;49.10;;;;;;6804639;26;20288;-57
2024/04/12 16:55:57;;;;;;;9.80;6.10;;;22.00;49.40;;;;;;6776879;26;20231;-58
2024/04/12 16:59:11;;;;;;;8.67;6.73;;;21.80;49.70;;;;;;6789398;26;20235;-57
2024/04/12 17:02:27;;;;;;;8.13;5.47;;;21.70;50.20;;;;;;6778343;26;20235;-58
2024/04/12 17:05:35;;;;;;;5.60;5.10;;;21.70;50.60;;;;;;6771594;26;20289;-57
2024/04/12 17:08:43;;;;;;;5.87;5.37;;;21.60;50.70;;;;;;6803859;26;20881;-59
2024/04/12 17:11:46;;;;;;;9.00;5.30;;;21.40;50.80;;;;;;6781336;26;20275;-58
2024/04/12 17:14:54;;;;;;;8.27;5.50;;;21.30;51.20;;;;;;6788237;26;20290;-59
2024/04/12 17:18:07;;;;;;;6.33;5.63;;;21.20;51.80;;;;;;6775370;26;20227;-59
2024/04/12 17:21:14;;;;;;;6.50;5.53;;;21.00;52.10;;;;;;6771894;26;20635;-60
2024/04/12 17:24:34;;;;;;;7.70;5.60;;;21.00;52.60;;;;;;6819196;26;20239;-60
2024/04/12 17:27:39;;;;;;;6.57;5.87;;;20.80;53.10;;;;;;6811463;26;20260;-59
2024/04/12 17:30:55;;;;;;;6.23;5.50;;;20.70;53.40;;;;;;6810793;26;20332;-59
2024/04/12 17:34:03;;;;;;;7.90;5.90;;;20.70;53.50;;;;;;6812343;26;20328;-61
2024/04/12 17:37:09;;;;;;;6.33;5.73;;;20.60;53.90;;;;;;6798949;26;20244;-59
2024/04/12 17:40:24;;;;;;;6.10;5.00;;;20.40;54.20;;;;;;6768979;26;20228;-59
2024/04/12 17:43:42;;;;;;;6.63;5.90;;;20.30;54.50;;;;;;6768739;26;20337;-59
2024/04/12 17:46:50;;;;;;;7.00;6.30;;;20.20;55.20;;;;;;6768873;26;20808;-59
2024/04/12 17:50:05;;;;;;;8.83;5.70;;;20.10;55.40;;;;;;6768790;26;20580;-60
2024/04/12 17:53:12;;;;;;;5.83;5.20;;;20.10;55.40;;;;;;6768433;26;20321;-59
2024/04/12 17:56:37;;;;;;;9.20;5.70;;;19.90;55.90;;;;;;6764991;26;20698;-59
2024/04/12 17:59:42;;;;;;;6.93;6.27;;;19.80;56.40;;;;;;6768542;26;20267;-59
2024/04/12 18:02:56;;;;;;;6.93;5.50;;;19.70;56.80;;;;;;6768115;26;20235;-60
2024/04/12 18:06:00;;;;;;;7.90;5.57;;;19.50;57.50;;;;;;6768031;26;20624;-59
2024/04/12 18:09:08;;;;;;;9.20;6.23;;;19.40;58.10;;;;;;6767900;26;20228;-59
2024/04/12 18:12:29;;;;;;;8.63;6.77;;;19.20;58.90;;;;;;6766912;26;20224;-60
2024/04/12 18:15:36;;;;;;;7.20;5.63;;;19.10;59.80;;;;;;6768599;26;20291;-59
2024/04/12 18:18:47;;;;;;;6.13;5.33;;;19.00;60.70;;;;;;6768358;26;20220;-60
2024/04/12 18:21:51;;;;;;;7.37;6.10;;;18.90;61.70;;;;;;6767814;26;20220;-61
2024/04/12 18:24:59;;;;;;;6.87;6.17;;;18.70;62.40;;;;;;6767037;26;20284;-60
2024/04/12 18:28:06;;;;;;;8.83;6.73;;;18.50;64.10;;;;;;6768154;26;20232;-61
2024/04/12 18:31:21;;;;;;;7.23;6.50;;;18.40;65.00;;;;;;6765295;26;20330;-59
2024/04/12 18:34:42;;;;;;;7.17;6.30;;;18.30;66.00;;;;;;6693386;26;20276;-59
2024/04/12 18:45:14;;;;;;;6.57;5.93;;;17.90;70.80;;;;;;6781208;26;20895;-60
2024/04/12 18:48:29;;;;;;;7.97;5.17;;;17.70;71.90;;;;;;6813393;26;20319;-60
2024/04/12 18:51:43;;;;;;;8.33;6.90;;;17.60;73.40;;;;;;6813448;26;20243;-60
2024/04/12 18:54:59;;;;;;;9.57;6.23;;;17.50;75.20;;;;;;6812224;26;20281;-59
2024/04/12 18:58:06;;;;;;;8.40;6.90;;;17.40;77.50;;;;;;6812668;26;20283;-60
2024/04/12 19:01:32;;;;;;;13.10;6.73;;;17.30;79.30;;;;;;6809581;26;20757;-60
2024/04/12 19:04:46;;;;;;;8.73;7.00;;;17.20;81.90;;;;;;6812730;26;20236;-59
2024/04/12 19:07:51;;;;;;;8.60;6.30;;;17.10;83.70;;;;;;6812760;26;20243;-59
2024/04/12 19:10:59;;;;;;;7.27;6.57;;;17.00;86.10;;;;;;6812865;26;20580;-60
2024/04/12 19:14:03;;;;;;;8.50;7.47;;;16.90;87.60;;;;;;6811195;26;20574;-59
2024/04/12 19:17:18;;;;;;;10.53;7.07;;;16.80;89.50;;;;;;6813005;26;20320;-59
2024/04/12 19:20:23;;;;;;;7.67;7.07;;;16.80;90.50;;;;;;6811342;26;20300;-60